ΕΜΥ, Εθνική Μετεωρολογική Υπηρεσία - Δελτία Καιρού, Προγνώσεις

ΑΕΡΟΝΑΥΤΙΛΙΑ

GREEK AIRPORTS CODES

LGKJ 250330Z AUTO 00000KT //// // ////// 12/05 Q1013 RE//=

EUROPEAN AIRPORTS CODES

EKCH 250320Z 18011KT 9999 FEW003 SCT006 BKN045 05/04 Q0989BECMG 23015G25=